Offenbach, Germany

11:25 PM CEST on July 29, 2016 (GMT +0200)
Bettinastraße | | Change Station

Elev 341 ft 50.11 °N, 8.75 °E | Updated 32 minutes ago

Mostly Cloudy
Mostly Cloudy
74.1 °F
Feels Like 76 °F
N
0.6
Wind Variable Wind from SSW
Gusts 2.5 mph

Today
High -- | Low -- °F
--% Chance of Precip.
Yesterday
High -- | Low -- °F
Precip. -- in
Pressure 29.92 in
Visibility 6.2 miles
Clouds Few 4000 ft
Mostly Cloudy 8500 ft
Heat Index 76 °F
Dew Point 63 °F
Humidity 68%
Rainfall in
Snow Depth Not available.
5:50 AM 9:11 PM
Waning Crescent, 19% visible
METAR EDDF 292120Z 20004KT 9999 FEW040 BKN085 19/16 Q1013 NOSIG
Pressure 29.92 in
Visibility 6.2 miles
Clouds Few 4000 ft
Mostly Cloudy 8500 ft
Heat Index 76 °F
Dew Point 63 °F
Humidity 68%
Rainfall in
Snow Depth Not available.
5:50 AM 9:11 PM
Waning Crescent, 19% visible
METAR EDDF 292120Z 20004KT 9999 FEW040 BKN085 19/16 Q1013 NOSIG

10-Day Weather Forecast

×

Almanac

Astronomy

Jul. 29, 2016 Rise Set
Actual Time
Civil Twilight
Nautical Twilight
Astronomical Twilight
Moon
Length of Visible Light
Length of Day
Tomorrow will be .
, % of the Moon is Illuminated

Today's Extremes

Country Highs Country Lows

Community

WunderPhotos

Upload Photos

1,928,423 photos uploaded!

WunderBlog® & News

Nearby

Air Quality

  Air Quality AQ Index Pollutant
Not available.

Snow Depth

Station Depth Elevation

Earthquake Activity

City Distance Mag. Time & Date
Minimum magnitude displayed is 2.5.

Coastal Water Temperatures

Place Temperature

Stations

Nearby Weather Stations

Station Location Temp. Windchill Dew Point Humidity Wind Precip. Elev Updated Type